CSW233 VMMC-ZUUU
Flight info
| Callsign | CSW233 |
|---|---|
| Flight time | N/A |
| Altitude | 36100 |
| Route | MIPAG W21 CEN/K0870S1130 W21 NUSLA/K0869S1160 W22 TEPID W24 OSNOV G586 QP B330 ELKAL W179 IGNAK IGNAK9J |
| Aircraft | B736/M-SDE2E3FGHIRWXY/LB1 |
Departure
| Time | 2026-05-08 05:25 |
|---|---|
| Airport | Macau International Airport (VMMC) |
Arrival
| Time | N/A |
|---|---|
| Airport | Chengdu Shuangliu International Airport (ZUUU) |
| Time | Latitude | Longitude | Altitude | Speed | Heading |
|---|---|---|---|---|---|
| 2026-05-08 05:07 | 22.15661 | 113.57700 | 28 ft | 0 kts | 122° |
| 2026-05-08 05:21 | 22.15662 | 113.57703 | 27 ft | 1 kts | 52° |
| 2026-05-08 05:21 | 22.15673 | 113.57695 | 27 ft | 3 kts | 317° |
| 2026-05-08 05:21 | 22.15731 | 113.57658 | 28 ft | 14 kts | 0° |
| 2026-05-08 05:21 | 22.15830 | 113.57689 | 27 ft | 14 kts | 18° |
| 2026-05-08 05:22 | 22.15927 | 113.57719 | 28 ft | 14 kts | 17° |
| 2026-05-08 05:22 | 22.16023 | 113.57752 | 28 ft | 14 kts | 15° |
| 2026-05-08 05:22 | 22.16107 | 113.57819 | 27 ft | 17 kts | 69° |
| 2026-05-08 05:22 | 22.16149 | 113.57951 | 27 ft | 23 kts | 71° |
| 2026-05-08 05:23 | 22.16206 | 113.58133 | 27 ft | 25 kts | 71° |
| 2026-05-08 05:23 | 22.16260 | 113.58304 | 27 ft | 21 kts | 71° |
| 2026-05-08 05:23 | 22.16306 | 113.58447 | 27 ft | 19 kts | 73° |
| 2026-05-08 05:23 | 22.16345 | 113.58579 | 27 ft | 17 kts | 75° |
| 2026-05-08 05:24 | 22.16294 | 113.58642 | 27 ft | 9 kts | 162° |
| 2026-05-08 05:24 | 22.16142 | 113.58697 | 28 ft | 50 kts | 160° |
| 2026-05-08 05:24 | 22.15623 | 113.58891 | 28 ft | 105 kts | 161° |
| 2026-05-08 05:24 | 22.14765 | 113.59206 | 30 ft | 151 kts | 160° |
| 2026-05-08 05:25 | 22.14412 | 113.59338 | 110 ft | 154 kts | 160° |
| 2026-05-08 05:25 | 22.13764 | 113.59573 | 421 ft | 149 kts | 160° |
| 2026-05-08 05:25 | 22.12778 | 113.59950 | 757 ft | 156 kts | 157° |
| 2026-05-08 05:25 | 22.11735 | 113.60397 | 1072 ft | 168 kts | 160° |
| 2026-05-08 05:26 | 22.10557 | 113.60751 | 1351 ft | 183 kts | 163° |
| 2026-05-08 05:26 | 22.09287 | 113.61187 | 1572 ft | 204 kts | 159° |
| 2026-05-08 05:26 | 22.07899 | 113.61729 | 2055 ft | 218 kts | 159° |
| 2026-05-08 05:26 | 22.06456 | 113.62279 | 2736 ft | 222 kts | 160° |
| 2026-05-08 05:27 | 22.05006 | 113.62817 | 3470 ft | 224 kts | 160° |
| 2026-05-08 05:27 | 22.03532 | 113.63357 | 4212 ft | 225 kts | 161° |
| 2026-05-08 05:27 | 22.02046 | 113.63903 | 4922 ft | 227 kts | 161° |
| 2026-05-08 05:27 | 22.00535 | 113.64459 | 5579 ft | 231 kts | 161° |
| 2026-05-08 05:28 | 21.99007 | 113.64951 | 5872 ft | 234 kts | 173° |
| 2026-05-08 05:28 | 21.97396 | 113.64726 | 5896 ft | 232 kts | 207° |
| 2026-05-08 05:28 | 21.96145 | 113.63657 | 5895 ft | 229 kts | 233° |
| 2026-05-08 05:28 | 21.95338 | 113.62193 | 5883 ft | 228 kts | 248° |
| 2026-05-08 05:29 | 21.95011 | 113.60540 | 5881 ft | 228 kts | 274° |
| 2026-05-08 05:29 | 21.95482 | 113.58931 | 5893 ft | 228 kts | 301° |
| 2026-05-08 05:29 | 21.96495 | 113.57614 | 5894 ft | 227 kts | 318° |
| 2026-05-08 05:29 | 21.97862 | 113.56770 | 5889 ft | 229 kts | 346° |
| 2026-05-08 05:30 | 21.99449 | 113.56743 | 5890 ft | 230 kts | 9° |
| 2026-05-08 05:30 | 22.01032 | 113.57104 | 5887 ft | 230 kts | 11° |
| 2026-05-08 05:30 | 22.02590 | 113.57450 | 5890 ft | 230 kts | 10° |
| 2026-05-08 05:30 | 22.04160 | 113.57773 | 5886 ft | 228 kts | 10° |
| 2026-05-08 05:31 | 22.05742 | 113.58097 | 5889 ft | 228 kts | 11° |
| 2026-05-08 05:31 | 22.07301 | 113.58426 | 5891 ft | 228 kts | 11° |
| 2026-05-08 05:31 | 22.08844 | 113.58758 | 5893 ft | 227 kts | 11° |
| 2026-05-08 05:31 | 22.10401 | 113.59090 | 5890 ft | 227 kts | 11° |
| 2026-05-08 05:32 | 22.11964 | 113.59422 | 5893 ft | 227 kts | 11° |
| 2026-05-08 05:32 | 22.13513 | 113.59754 | 5893 ft | 226 kts | 12° |
| 2026-05-08 05:32 | 22.15106 | 113.60194 | 6018 ft | 248 kts | 15° |
| 2026-05-08 05:32 | 22.16822 | 113.60738 | 6427 ft | 265 kts | 16° |
| 2026-05-08 05:33 | 22.18645 | 113.61322 | 6909 ft | 279 kts | 15° |
| 2026-05-08 05:33 | 22.20543 | 113.61924 | 7537 ft | 287 kts | 15° |
| 2026-05-08 05:33 | 22.22485 | 113.62529 | 7870 ft | 291 kts | 15° |
| 2026-05-08 05:33 | 22.24442 | 113.63139 | 7895 ft | 290 kts | 15° |
| 2026-05-08 05:34 | 22.26361 | 113.63738 | 7893 ft | 287 kts | 15° |
| 2026-05-08 05:34 | 22.28260 | 113.64459 | 7893 ft | 289 kts | 25° |
| 2026-05-08 05:34 | 22.30015 | 113.65665 | 8257 ft | 302 kts | 37° |
| 2026-05-08 05:34 | 22.31613 | 113.67078 | 9195 ft | 299 kts | 39° |
| 2026-05-08 05:35 | 22.33199 | 113.68523 | 9990 ft | 301 kts | 38° |
| 2026-05-08 05:35 | 22.34847 | 113.69994 | 10551 ft | 313 kts | 38° |
| 2026-05-08 05:35 | 22.36577 | 113.71501 | 10978 ft | 329 kts | 37° |
| 2026-05-08 05:35 | 22.38406 | 113.73076 | 11434 ft | 344 kts | 37° |
| 2026-05-08 05:36 | 22.40334 | 113.74728 | 11827 ft | 359 kts | 37° |
| 2026-05-08 05:36 | 22.42326 | 113.76436 | 12195 ft | 375 kts | 37° |
| 2026-05-08 05:36 | 22.44417 | 113.78234 | 12547 ft | 389 kts | 37° |
| 2026-05-08 05:36 | 22.46525 | 113.80126 | 13012 ft | 399 kts | 39° |
| 2026-05-08 05:37 | 22.48631 | 113.82104 | 13634 ft | 404 kts | 40° |
| 2026-05-08 05:37 | 22.50731 | 113.84112 | 14278 ft | 408 kts | 40° |
| 2026-05-08 05:37 | 22.52883 | 113.86176 | 14686 ft | 411 kts | 40° |
| 2026-05-08 05:37 | 22.55026 | 113.88226 | 14742 ft | 412 kts | 40° |
| 2026-05-08 05:38 | 22.57177 | 113.90277 | 14735 ft | 410 kts | 40° |
| 2026-05-08 05:38 | 22.59290 | 113.92287 | 14732 ft | 409 kts | 40° |
| 2026-05-08 05:38 | 22.61437 | 113.94321 | 14732 ft | 408 kts | 39° |
| 2026-05-08 05:38 | 22.63642 | 113.96300 | 14736 ft | 408 kts | 35° |
| 2026-05-08 05:39 | 22.66046 | 113.97865 | 14730 ft | 403 kts | 20° |
| 2026-05-08 05:39 | 22.68774 | 113.98521 | 14736 ft | 399 kts | 0° |
| 2026-05-08 05:39 | 22.71526 | 113.98207 | 14736 ft | 395 kts | 344° |
| 2026-05-08 05:39 | 22.74092 | 113.97169 | 14734 ft | 393 kts | 333° |
| 2026-05-08 05:40 | 22.76448 | 113.95702 | 14724 ft | 391 kts | 322° |
| 2026-05-08 05:40 | 22.78417 | 113.93690 | 14728 ft | 390 kts | 310° |
| 2026-05-08 05:40 | 22.80127 | 113.91402 | 14728 ft | 389 kts | 306° |
| 2026-05-08 05:40 | 22.81737 | 113.89047 | 14725 ft | 389 kts | 305° |
| 2026-05-08 05:41 | 22.83329 | 113.86678 | 14732 ft | 389 kts | 305° |
| 2026-05-08 05:41 | 22.84920 | 113.84346 | 14724 ft | 388 kts | 306° |
| 2026-05-08 05:41 | 22.86557 | 113.81998 | 14728 ft | 388 kts | 306° |
| 2026-05-08 05:41 | 22.88217 | 113.79663 | 14724 ft | 389 kts | 307° |
| 2026-05-08 05:42 | 22.90021 | 113.77494 | 14728 ft | 389 kts | 316° |
| 2026-05-08 05:42 | 22.92211 | 113.75766 | 14738 ft | 392 kts | 330° |
| 2026-05-08 05:42 | 22.94779 | 113.74698 | 14850 ft | 403 kts | 344° |
| 2026-05-08 05:42 | 22.97564 | 113.74209 | 15616 ft | 404 kts | 352° |
| 2026-05-08 05:43 | 23.00348 | 113.74025 | 16320 ft | 406 kts | 356° |
| 2026-05-08 05:43 | 23.03218 | 113.73994 | 16955 ft | 410 kts | 358° |
| 2026-05-08 05:43 | 23.06090 | 113.74030 | 17506 ft | 415 kts | 359° |
| 2026-05-08 05:43 | 23.08988 | 113.74081 | 18098 ft | 419 kts | 359° |
| 2026-05-08 05:44 | 23.11916 | 113.74129 | 18688 ft | 422 kts | 359° |
| 2026-05-08 05:44 | 23.14866 | 113.74164 | 19288 ft | 424 kts | 359° |
| 2026-05-08 05:44 | 23.17816 | 113.74184 | 19885 ft | 427 kts | 358° |
| 2026-05-08 05:44 | 23.20791 | 113.74129 | 20489 ft | 428 kts | 355° |
| 2026-05-08 05:45 | 23.23762 | 113.73772 | 21048 ft | 429 kts | 347° |
| 2026-05-08 05:45 | 23.26606 | 113.72885 | 21583 ft | 429 kts | 337° |
| 2026-05-08 05:45 | 23.29302 | 113.71438 | 22133 ft | 430 kts | 327° |
| 2026-05-08 05:45 | 23.31731 | 113.69553 | 22660 ft | 432 kts | 319° |
| 2026-05-08 05:46 | 23.33956 | 113.67382 | 23170 ft | 434 kts | 315° |
| 2026-05-08 05:46 | 23.36048 | 113.64970 | 23715 ft | 436 kts | 310° |
| 2026-05-08 05:46 | 23.37941 | 113.62394 | 24220 ft | 439 kts | 306° |
| 2026-05-08 05:46 | 23.39758 | 113.59692 | 24732 ft | 441 kts | 305° |
| 2026-05-08 05:47 | 23.40551 | 113.58472 | 24995 ft | 441 kts | 304° |